sensor_id;sensor_type;location;lat;lon;timestamp;P1;durP1;ratioP1;P2;durP2;ratioP2
12719;SDS011;6424;48.520;11.228;2023-03-13T00:01:31;2.47;;;1.20;;
12719;SDS011;6424;48.520;11.228;2023-03-13T00:04:17;2.83;;;1.30;;
12719;SDS011;6424;48.520;11.228;2023-03-13T00:06:58;5.10;;;1.60;;
12719;SDS011;6424;48.520;11.228;2023-03-13T00:09:39;4.00;;;1.37;;
12719;SDS011;6424;48.520;11.228;2023-03-13T00:12:20;2.03;;;1.43;;
12719;SDS011;6424;48.520;11.228;2023-03-13T00:15:00;4.37;;;1.50;;
12719;SDS011;6424;48.520;11.228;2023-03-13T00:17:41;4.10;;;1.60;;
12719;SDS011;6424;48.520;11.228;2023-03-13T00:20:22;3.63;;;1.70;;
12719;SDS011;6424;48.520;11.228;2023-03-13T00:23:03;3.23;;;1.57;;
12719;SDS011;6424;48.520;11.228;2023-03-13T00:25:28;2.87;;;1.53;;
12719;SDS011;6424;48.520;11.228;2023-03-13T00:28:09;5.40;;;1.60;;
12719;SDS011;6424;48.520;11.228;2023-03-13T00:30:50;2.43;;;1.53;;
12719;SDS011;6424;48.520;11.228;2023-03-13T00:33:34;4.27;;;1.90;;
12719;SDS011;6424;48.520;11.228;2023-03-13T00:36:02;4.60;;;1.73;;
12719;SDS011;6424;48.520;11.228;2023-03-13T00:38:45;2.40;;;1.30;;
12719;SDS011;6424;48.520;11.228;2023-03-13T00:41:21;2.77;;;1.50;;
12719;SDS011;6424;48.520;11.228;2023-03-13T00:44:06;3.07;;;1.50;;
12719;SDS011;6424;48.520;11.228;2023-03-13T00:46:32;2.50;;;1.27;;
12719;SDS011;6424;48.520;11.228;2023-03-13T00:49:13;4.10;;;1.37;;
12719;SDS011;6424;48.520;11.228;2023-03-13T00:51:54;5.67;;;1.70;;
12719;SDS011;6424;48.520;11.228;2023-03-13T00:54:34;4.93;;;1.83;;
12719;SDS011;6424;48.520;11.228;2023-03-13T00:57:15;3.83;;;1.60;;
12719;SDS011;6424;48.520;11.228;2023-03-13T00:59:56;3.70;;;1.50;;
12719;SDS011;6424;48.520;11.228;2023-03-13T01:02:40;4.50;;;1.80;;
12719;SDS011;6424;48.520;11.228;2023-03-13T01:05:22;6.43;;;1.57;;
12719;SDS011;6424;48.520;11.228;2023-03-13T01:08:02;5.70;;;1.70;;
12719;SDS011;6424;48.520;11.228;2023-03-13T01:10:28;4.87;;;1.43;;
12719;SDS011;6424;48.520;11.228;2023-03-13T01:13:09;6.80;;;1.63;;
12719;SDS011;6424;48.520;11.228;2023-03-13T01:15:50;5.00;;;1.77;;
12719;SDS011;6424;48.520;11.228;2023-03-13T01:18:32;3.13;;;1.37;;
12719;SDS011;6424;48.520;11.228;2023-03-13T01:21:14;6.63;;;1.97;;
12719;SDS011;6424;48.520;11.228;2023-03-13T01:23:55;4.17;;;1.53;;
12719;SDS011;6424;48.520;11.228;2023-03-13T01:26:36;3.47;;;1.53;;
12719;SDS011;6424;48.520;11.228;2023-03-13T01:29:18;3.43;;;1.87;;
12719;SDS011;6424;48.520;11.228;2023-03-13T01:31:58;4.00;;;1.50;;
12719;SDS011;6424;48.520;11.228;2023-03-13T01:34:39;2.50;;;1.23;;
12719;SDS011;6424;48.520;11.228;2023-03-13T01:37:05;4.63;;;1.37;;
12719;SDS011;6424;48.520;11.228;2023-03-13T01:39:46;6.00;;;1.47;;
12719;SDS011;6424;48.520;11.228;2023-03-13T01:42:26;4.83;;;1.47;;
12719;SDS011;6424;48.520;11.228;2023-03-13T01:45:48;5.37;;;1.60;;
12719;SDS011;6424;48.520;11.228;2023-03-13T01:48:42;4.87;;;1.70;;
12719;SDS011;6424;48.520;11.228;2023-03-13T01:51:44;6.97;;;1.53;;
12719;SDS011;6424;48.520;11.228;2023-03-13T01:54:41;4.77;;;1.53;;
12719;SDS011;6424;48.520;11.228;2023-03-13T01:57:29;3.37;;;1.30;;
12719;SDS011;6424;48.520;11.228;2023-03-13T02:00:14;4.47;;;1.40;;
12719;SDS011;6424;48.520;11.228;2023-03-13T02:03:11;2.33;;;1.20;;
12719;SDS011;6424;48.520;11.228;2023-03-13T02:05:54;4.07;;;1.80;;
12719;SDS011;6424;48.520;11.228;2023-03-13T02:08:42;2.80;;;1.20;;
12719;SDS011;6424;48.520;11.228;2023-03-13T02:11:38;2.00;;;1.40;;
12719;SDS011;6424;48.520;11.228;2023-03-13T02:14:27;4.20;;;1.50;;
12719;SDS011;6424;48.520;11.228;2023-03-13T02:17:11;1.83;;;1.10;;
12719;SDS011;6424;48.520;11.228;2023-03-13T02:19:52;4.83;;;1.60;;
12719;SDS011;6424;48.520;11.228;2023-03-13T02:25:35;3.77;;;1.20;;
12719;SDS011;6424;48.520;11.228;2023-03-13T02:28:24;3.13;;;1.20;;
12719;SDS011;6424;48.520;11.228;2023-03-13T02:31:12;3.80;;;1.20;;
12719;SDS011;6424;48.520;11.228;2023-03-13T02:33:53;4.53;;;1.30;;
12719;SDS011;6424;48.520;11.228;2023-03-13T02:36:35;2.77;;;1.30;;
12719;SDS011;6424;48.520;11.228;2023-03-13T02:39:16;4.03;;;1.20;;
12719;SDS011;6424;48.520;11.228;2023-03-13T02:41:59;6.10;;;1.60;;
12719;SDS011;6424;48.520;11.228;2023-03-13T02:44:42;3.10;;;1.20;;
12719;SDS011;6424;48.520;11.228;2023-03-13T02:47:26;2.77;;;0.90;;
12719;SDS011;6424;48.520;11.228;2023-03-13T02:50:06;3.67;;;1.17;;
12719;SDS011;6424;48.520;11.228;2023-03-13T02:53:02;4.90;;;1.20;;
12719;SDS011;6424;48.520;11.228;2023-03-13T02:55:46;1.97;;;0.93;;
12719;SDS011;6424;48.520;11.228;2023-03-13T02:58:27;4.27;;;1.00;;
12719;SDS011;6424;48.520;11.228;2023-03-13T03:01:14;4.10;;;1.40;;
12719;SDS011;6424;48.520;11.228;2023-03-13T03:03:55;1.57;;;1.07;;
12719;SDS011;6424;48.520;11.228;2023-03-13T03:06:35;2.10;;;1.00;;
12719;SDS011;6424;48.520;11.228;2023-03-13T03:09:17;1.77;;;0.87;;
12719;SDS011;6424;48.520;11.228;2023-03-13T03:11:58;2.43;;;0.90;;
12719;SDS011;6424;48.520;11.228;2023-03-13T03:14:39;1.97;;;1.00;;
12719;SDS011;6424;48.520;11.228;2023-03-13T03:17:20;1.40;;;0.90;;
12719;SDS011;6424;48.520;11.228;2023-03-13T03:20:01;1.70;;;0.90;;
12719;SDS011;6424;48.520;11.228;2023-03-13T03:22:44;3.00;;;1.00;;
12719;SDS011;6424;48.520;11.228;2023-03-13T03:25:24;2.17;;;0.90;;
12719;SDS011;6424;48.520;11.228;2023-03-13T03:28:05;2.00;;;0.70;;
12719;SDS011;6424;48.520;11.228;2023-03-13T03:30:46;3.27;;;1.07;;
12719;SDS011;6424;48.520;11.228;2023-03-13T03:33:12;2.00;;;0.80;;
12719;SDS011;6424;48.520;11.228;2023-03-13T03:35:57;2.40;;;0.90;;
12719;SDS011;6424;48.520;11.228;2023-03-13T03:38:43;3.03;;;0.87;;
12719;SDS011;6424;48.520;11.228;2023-03-13T03:41:10;2.13;;;1.10;;
12719;SDS011;6424;48.520;11.228;2023-03-13T03:43:53;1.57;;;0.70;;
12719;SDS011;6424;48.520;11.228;2023-03-13T03:46:33;3.63;;;1.30;;
12719;SDS011;6424;48.520;11.228;2023-03-13T03:49:14;2.77;;;1.03;;
12719;SDS011;6424;48.520;11.228;2023-03-13T03:51:55;1.67;;;0.80;;
12719;SDS011;6424;48.520;11.228;2023-03-13T03:54:21;1.90;;;0.93;;
12719;SDS011;6424;48.520;11.228;2023-03-13T03:57:01;1.70;;;1.00;;
12719;SDS011;6424;48.520;11.228;2023-03-13T03:59:42;3.00;;;0.90;;
12719;SDS011;6424;48.520;11.228;2023-03-13T04:02:23;1.87;;;1.10;;
12719;SDS011;6424;48.520;11.228;2023-03-13T04:05:04;2.60;;;1.30;;
12719;SDS011;6424;48.520;11.228;2023-03-13T04:07:44;2.67;;;0.90;;
12719;SDS011;6424;48.520;11.228;2023-03-13T04:10:25;1.33;;;1.03;;
12719;SDS011;6424;48.520;11.228;2023-03-13T04:13:06;2.57;;;1.10;;
12719;SDS011;6424;48.520;11.228;2023-03-13T04:15:47;3.67;;;1.20;;
12719;SDS011;6424;48.520;11.228;2023-03-13T04:18:28;3.23;;;1.13;;
12719;SDS011;6424;48.520;11.228;2023-03-13T04:21:09;3.30;;;1.10;;
12719;SDS011;6424;48.520;11.228;2023-03-13T04:23:50;2.27;;;1.00;;
12719;SDS011;6424;48.520;11.228;2023-03-13T04:26:30;2.13;;;0.97;;
12719;SDS011;6424;48.520;11.228;2023-03-13T04:29:11;1.17;;;0.70;;
12719;SDS011;6424;48.520;11.228;2023-03-13T04:31:37;2.80;;;1.27;;
12719;SDS011;6424;48.520;11.228;2023-03-13T04:34:18;3.17;;;1.03;;
12719;SDS011;6424;48.520;11.228;2023-03-13T04:36:43;1.40;;;1.00;;
12719;SDS011;6424;48.520;11.228;2023-03-13T04:39:24;3.30;;;1.67;;
12719;SDS011;6424;48.520;11.228;2023-03-13T04:42:05;2.80;;;2.23;;
12719;SDS011;6424;48.520;11.228;2023-03-13T04:44:46;3.03;;;1.10;;
12719;SDS011;6424;48.520;11.228;2023-03-13T04:47:26;1.80;;;1.00;;
12719;SDS011;6424;48.520;11.228;2023-03-13T04:50:07;2.03;;;1.30;;
12719;SDS011;6424;48.520;11.228;2023-03-13T04:52:49;1.60;;;0.87;;
12719;SDS011;6424;48.520;11.228;2023-03-13T04:55:29;2.63;;;1.50;;
12719;SDS011;6424;48.520;11.228;2023-03-13T04:58:10;2.47;;;1.10;;
12719;SDS011;6424;48.520;11.228;2023-03-13T05:00:52;2.97;;;1.33;;
12719;SDS011;6424;48.520;11.228;2023-03-13T05:03:18;1.77;;;1.30;;
12719;SDS011;6424;48.520;11.228;2023-03-13T05:05:58;4.00;;;1.10;;
12719;SDS011;6424;48.520;11.228;2023-03-13T05:08:39;2.77;;;1.50;;
12719;SDS011;6424;48.520;11.228;2023-03-13T05:11:20;3.93;;;1.10;;
12719;SDS011;6424;48.520;11.228;2023-03-13T05:14:01;5.03;;;0.97;;
12719;SDS011;6424;48.520;11.228;2023-03-13T05:16:28;1.20;;;1.00;;
12719;SDS011;6424;48.520;11.228;2023-03-13T05:19:09;2.07;;;1.00;;
12719;SDS011;6424;48.520;11.228;2023-03-13T05:21:50;3.73;;;1.10;;
12719;SDS011;6424;48.520;11.228;2023-03-13T05:24:15;2.27;;;1.07;;
12719;SDS011;6424;48.520;11.228;2023-03-13T05:26:56;1.13;;;1.03;;
12719;SDS011;6424;48.520;11.228;2023-03-13T05:29:37;2.13;;;1.20;;
12719;SDS011;6424;48.520;11.228;2023-03-13T05:32:18;1.97;;;1.03;;
12719;SDS011;6424;48.520;11.228;2023-03-13T05:34:59;3.30;;;1.30;;
12719;SDS011;6424;48.520;11.228;2023-03-13T05:37:40;1.67;;;0.90;;
12719;SDS011;6424;48.520;11.228;2023-03-13T05:40:21;2.23;;;0.93;;
12719;SDS011;6424;48.520;11.228;2023-03-13T05:43:02;2.70;;;0.80;;
12719;SDS011;6424;48.520;11.228;2023-03-13T05:45:43;1.93;;;1.07;;
12719;SDS011;6424;48.520;11.228;2023-03-13T05:48:09;3.30;;;1.90;;
12719;SDS011;6424;48.520;11.228;2023-03-13T05:50:34;3.30;;;1.17;;
12719;SDS011;6424;48.520;11.228;2023-03-13T05:53:15;2.57;;;0.80;;
12719;SDS011;6424;48.520;11.228;2023-03-13T05:55:56;1.80;;;0.97;;
12719;SDS011;6424;48.520;11.228;2023-03-13T05:58:37;1.90;;;1.20;;
12719;SDS011;6424;48.520;11.228;2023-03-13T06:01:17;1.43;;;0.90;;
12719;SDS011;6424;48.520;11.228;2023-03-13T06:03:58;1.73;;;1.10;;
12719;SDS011;6424;48.520;11.228;2023-03-13T06:06:24;2.30;;;0.77;;
12719;SDS011;6424;48.520;11.228;2023-03-13T06:09:05;1.30;;;0.93;;
12719;SDS011;6424;48.520;11.228;2023-03-13T06:11:45;2.70;;;1.03;;
12719;SDS011;6424;48.520;11.228;2023-03-13T06:14:26;1.93;;;0.80;;
12719;SDS011;6424;48.520;11.228;2023-03-13T06:17:07;1.70;;;0.90;;
12719;SDS011;6424;48.520;11.228;2023-03-13T06:19:48;3.23;;;1.13;;
12719;SDS011;6424;48.520;11.228;2023-03-13T06:22:28;1.07;;;0.80;;
12719;SDS011;6424;48.520;11.228;2023-03-13T06:25:10;2.17;;;1.20;;
12719;SDS011;6424;48.520;11.228;2023-03-13T06:27:51;1.97;;;1.10;;
12719;SDS011;6424;48.520;11.228;2023-03-13T06:30:31;2.70;;;0.80;;
12719;SDS011;6424;48.520;11.228;2023-03-13T06:33:12;2.60;;;1.10;;
12719;SDS011;6424;48.520;11.228;2023-03-13T06:35:53;3.83;;;1.33;;
12719;SDS011;6424;48.520;11.228;2023-03-13T06:38:34;1.27;;;1.03;;
12719;SDS011;6424;48.520;11.228;2023-03-13T06:41:15;2.53;;;1.00;;
12719;SDS011;6424;48.520;11.228;2023-03-13T06:43:56;0.87;;;0.63;;
12719;SDS011;6424;48.520;11.228;2023-03-13T06:46:36;1.67;;;1.00;;
12719;SDS011;6424;48.520;11.228;2023-03-13T06:49:17;1.53;;;1.07;;
12719;SDS011;6424;48.520;11.228;2023-03-13T06:51:58;1.17;;;0.70;;
12719;SDS011;6424;48.520;11.228;2023-03-13T06:54:39;4.07;;;0.90;;
12719;SDS011;6424;48.520;11.228;2023-03-13T06:57:19;1.97;;;1.07;;
12719;SDS011;6424;48.520;11.228;2023-03-13T06:59:45;3.93;;;1.20;;
12719;SDS011;6424;48.520;11.228;2023-03-13T07:02:26;2.60;;;1.10;;
12719;SDS011;6424;48.520;11.228;2023-03-13T07:05:07;1.40;;;0.80;;
12719;SDS011;6424;48.520;11.228;2023-03-13T07:07:48;1.17;;;0.67;;
12719;SDS011;6424;48.520;11.228;2023-03-13T07:10:32;1.70;;;1.10;;
12719;SDS011;6424;48.520;11.228;2023-03-13T07:13:12;1.73;;;0.90;;
12719;SDS011;6424;48.520;11.228;2023-03-13T07:15:53;0.87;;;0.63;;
12719;SDS011;6424;48.520;11.228;2023-03-13T07:18:34;1.63;;;0.90;;
12719;SDS011;6424;48.520;11.228;2023-03-13T07:21:16;1.20;;;0.93;;
12719;SDS011;6424;48.520;11.228;2023-03-13T07:23:57;1.17;;;0.90;;
12719;SDS011;6424;48.520;11.228;2023-03-13T07:26:22;1.43;;;0.97;;
12719;SDS011;6424;48.520;11.228;2023-03-13T07:28:48;1.30;;;0.80;;
12719;SDS011;6424;48.520;11.228;2023-03-13T07:31:29;1.97;;;0.90;;
12719;SDS011;6424;48.520;11.228;2023-03-13T07:34:12;1.00;;;0.90;;
12719;SDS011;6424;48.520;11.228;2023-03-13T07:36:53;2.87;;;0.97;;
12719;SDS011;6424;48.520;11.228;2023-03-13T07:39:35;1.63;;;0.90;;
12719;SDS011;6424;48.520;11.228;2023-03-13T07:42:15;1.63;;;0.80;;
12719;SDS011;6424;48.520;11.228;2023-03-13T07:44:56;1.30;;;0.87;;
12719;SDS011;6424;48.520;11.228;2023-03-13T07:47:37;1.80;;;0.77;;
12719;SDS011;6424;48.520;11.228;2023-03-13T07:50:18;0.50;;;0.50;;
12719;SDS011;6424;48.520;11.228;2023-03-13T07:52:58;2.20;;;1.03;;
12719;SDS011;6424;48.520;11.228;2023-03-13T07:55:39;1.67;;;1.00;;
12719;SDS011;6424;48.520;11.228;2023-03-13T07:58:05;1.90;;;0.73;;
12719;SDS011;6424;48.520;11.228;2023-03-13T08:00:46;1.97;;;0.67;;
12719;SDS011;6424;48.520;11.228;2023-03-13T08:03:11;1.07;;;0.60;;
12719;SDS011;6424;48.520;11.228;2023-03-13T08:05:59;0.70;;;0.50;;
12719;SDS011;6424;48.520;11.228;2023-03-13T08:08:42;1.33;;;0.80;;
12719;SDS011;6424;48.520;11.228;2023-03-13T08:11:23;1.03;;;0.77;;
12719;SDS011;6424;48.520;11.228;2023-03-13T08:14:05;1.30;;;0.57;;
12719;SDS011;6424;48.520;11.228;2023-03-13T08:16:46;1.43;;;0.70;;
12719;SDS011;6424;48.520;11.228;2023-03-13T08:19:27;1.00;;;0.63;;
12719;SDS011;6424;48.520;11.228;2023-03-13T08:22:08;0.47;;;0.40;;
12719;SDS011;6424;48.520;11.228;2023-03-13T08:24:49;2.20;;;0.97;;
12719;SDS011;6424;48.520;11.228;2023-03-13T08:27:29;1.17;;;0.70;;
12719;SDS011;6424;48.520;11.228;2023-03-13T08:30:10;0.97;;;0.77;;
12719;SDS011;6424;48.520;11.228;2023-03-13T08:32:52;1.13;;;0.60;;
12719;SDS011;6424;48.520;11.228;2023-03-13T08:35:32;1.20;;;0.63;;
12719;SDS011;6424;48.520;11.228;2023-03-13T08:38:13;1.50;;;0.50;;
12719;SDS011;6424;48.520;11.228;2023-03-13T08:40:57;1.10;;;0.53;;
12719;SDS011;6424;48.520;11.228;2023-03-13T08:43:38;2.17;;;0.83;;
12719;SDS011;6424;48.520;11.228;2023-03-13T08:46:18;1.00;;;0.70;;
12719;SDS011;6424;48.520;11.228;2023-03-13T08:48:59;1.17;;;0.67;;
12719;SDS011;6424;48.520;11.228;2023-03-13T08:51:40;3.07;;;0.90;;
12719;SDS011;6424;48.520;11.228;2023-03-13T08:54:21;2.03;;;0.60;;
12719;SDS011;6424;48.520;11.228;2023-03-13T08:57:02;1.10;;;0.60;;
12719;SDS011;6424;48.520;11.228;2023-03-13T08:59:43;0.70;;;0.50;;
12719;SDS011;6424;48.520;11.228;2023-03-13T09:02:24;0.80;;;0.70;;
12719;SDS011;6424;48.520;11.228;2023-03-13T09:05:05;2.10;;;0.60;;
12719;SDS011;6424;48.520;11.228;2023-03-13T09:07:46;1.47;;;0.50;;
12719;SDS011;6424;48.520;11.228;2023-03-13T09:10:27;1.80;;;0.63;;
12719;SDS011;6424;48.520;11.228;2023-03-13T09:13:07;1.43;;;0.80;;
12719;SDS011;6424;48.520;11.228;2023-03-13T09:15:52;1.27;;;0.53;;
12719;SDS011;6424;48.520;11.228;2023-03-13T09:18:35;0.50;;;0.50;;
12719;SDS011;6424;48.520;11.228;2023-03-13T09:21:23;0.97;;;0.50;;
12719;SDS011;6424;48.520;11.228;2023-03-13T09:24:08;1.50;;;0.60;;
12719;SDS011;6424;48.520;11.228;2023-03-13T09:26:49;1.20;;;0.50;;
12719;SDS011;6424;48.520;11.228;2023-03-13T09:29:30;1.17;;;0.70;;
12719;SDS011;6424;48.520;11.228;2023-03-13T09:32:12;0.80;;;0.60;;
12719;SDS011;6424;48.520;11.228;2023-03-13T09:34:53;2.00;;;0.60;;
12719;SDS011;6424;48.520;11.228;2023-03-13T09:37:34;1.87;;;0.70;;
12719;SDS011;6424;48.520;11.228;2023-03-13T09:40:16;1.47;;;0.90;;
12719;SDS011;6424;48.520;11.228;2023-03-13T09:43:00;1.13;;;0.50;;
12719;SDS011;6424;48.520;11.228;2023-03-13T09:45:41;1.23;;;0.60;;
12719;SDS011;6424;48.520;11.228;2023-03-13T09:51:20;1.10;;;0.60;;
12719;SDS011;6424;48.520;11.228;2023-03-13T09:54:21;1.43;;;0.50;;
12719;SDS011;6424;48.520;11.228;2023-03-13T09:57:16;3.00;;;0.70;;
12719;SDS011;6424;48.520;11.228;2023-03-13T10:00:33;0.70;;;0.50;;
12719;SDS011;6424;48.520;11.228;2023-03-13T10:03:22;1.30;;;0.50;;
12719;SDS011;6424;48.520;11.228;2023-03-13T10:06:13;1.40;;;0.60;;
12719;SDS011;6424;48.520;11.228;2023-03-13T10:08:58;1.10;;;0.80;;
12719;SDS011;6424;48.520;11.228;2023-03-13T10:11:42;1.17;;;0.50;;
12719;SDS011;6424;48.520;11.228;2023-03-13T10:17:34;2.50;;;0.63;;
12719;SDS011;6424;48.520;11.228;2023-03-13T10:23:04;0.70;;;0.60;;
12719;SDS011;6424;48.520;11.228;2023-03-13T10:26:00;1.33;;;0.60;;
12719;SDS011;6424;48.520;11.228;2023-03-13T10:28:40;0.70;;;0.43;;
12719;SDS011;6424;48.520;11.228;2023-03-13T10:34:21;1.63;;;0.70;;
12719;SDS011;6424;48.520;11.228;2023-03-13T10:37:02;0.90;;;0.60;;
12719;SDS011;6424;48.520;11.228;2023-03-13T10:39:43;1.20;;;0.70;;
12719;SDS011;6424;48.520;11.228;2023-03-13T10:42:27;1.47;;;0.70;;
12719;SDS011;6424;48.520;11.228;2023-03-13T10:45:15;1.03;;;0.53;;
12719;SDS011;6424;48.520;11.228;2023-03-13T10:48:00;0.93;;;0.70;;
12719;SDS011;6424;48.520;11.228;2023-03-13T10:50:31;1.63;;;0.63;;
12719;SDS011;6424;48.520;11.228;2023-03-13T10:53:32;1.10;;;0.60;;
12719;SDS011;6424;48.520;11.228;2023-03-13T10:56:21;0.87;;;0.47;;
12719;SDS011;6424;48.520;11.228;2023-03-13T10:59:14;0.77;;;0.40;;
12719;SDS011;6424;48.520;11.228;2023-03-13T11:02:00;0.60;;;0.60;;
12719;SDS011;6424;48.520;11.228;2023-03-13T11:04:41;1.70;;;0.63;;
12719;SDS011;6424;48.520;11.228;2023-03-13T11:07:29;1.87;;;0.70;;
12719;SDS011;6424;48.520;11.228;2023-03-13T11:12:54;1.30;;;0.70;;
12719;SDS011;6424;48.520;11.228;2023-03-13T11:18:17;1.77;;;0.60;;
12719;SDS011;6424;48.520;11.228;2023-03-13T11:21:02;2.07;;;0.70;;
12719;SDS011;6424;48.520;11.228;2023-03-13T11:23:46;1.33;;;0.80;;
12719;SDS011;6424;48.520;11.228;2023-03-13T11:26:43;0.90;;;0.53;;
12719;SDS011;6424;48.520;11.228;2023-03-13T11:32:40;2.17;;;0.83;;
12719;SDS011;6424;48.520;11.228;2023-03-13T11:44:11;2.40;;;1.03;;
12719;SDS011;6424;48.520;11.228;2023-03-13T11:50:24;1.83;;;0.80;;
12719;SDS011;6424;48.520;11.228;2023-03-13T11:56:50;1.50;;;1.03;;
12719;SDS011;6424;48.520;11.228;2023-03-13T12:02:25;2.07;;;0.97;;
12719;SDS011;6424;48.520;11.228;2023-03-13T12:05:12;1.97;;;1.10;;
12719;SDS011;6424;48.520;11.228;2023-03-13T12:08:02;2.10;;;1.00;;
12719;SDS011;6424;48.520;11.228;2023-03-13T12:10:36;2.00;;;0.90;;
12719;SDS011;6424;48.520;11.228;2023-03-13T12:13:30;3.07;;;1.20;;
12719;SDS011;6424;48.520;11.228;2023-03-13T12:16:18;1.47;;;0.80;;
12719;SDS011;6424;48.520;11.228;2023-03-13T12:19:03;0.90;;;0.90;;
12719;SDS011;6424;48.520;11.228;2023-03-13T12:21:46;2.00;;;0.83;;
12719;SDS011;6424;48.520;11.228;2023-03-13T12:24:32;1.83;;;1.13;;
12719;SDS011;6424;48.520;11.228;2023-03-13T12:27:26;1.73;;;1.10;;
12719;SDS011;6424;48.520;11.228;2023-03-13T12:30:20;1.17;;;0.90;;
12719;SDS011;6424;48.520;11.228;2023-03-13T12:33:15;1.63;;;1.10;;
12719;SDS011;6424;48.520;11.228;2023-03-13T12:36:39;2.63;;;1.00;;
12719;SDS011;6424;48.520;11.228;2023-03-13T12:39:41;1.77;;;1.00;;
12719;SDS011;6424;48.520;11.228;2023-03-13T12:45:30;2.23;;;1.20;;
12719;SDS011;6424;48.520;11.228;2023-03-13T12:57:31;3.27;;;1.00;;
12719;SDS011;6424;48.520;11.228;2023-03-13T13:00:27;1.23;;;0.70;;
12719;SDS011;6424;48.520;11.228;2023-03-13T13:06:09;2.90;;;0.90;;
12719;SDS011;6424;48.520;11.228;2023-03-13T13:23:25;2.97;;;1.13;;
12719;SDS011;6424;48.520;11.228;2023-03-13T13:29:00;4.00;;;1.23;;
12719;SDS011;6424;48.520;11.228;2023-03-13T13:40:22;1.83;;;1.10;;
12719;SDS011;6424;48.520;11.228;2023-03-13T13:43:14;3.43;;;1.20;;
12719;SDS011;6424;48.520;11.228;2023-03-13T13:49:12;2.17;;;1.20;;
12719;SDS011;6424;48.520;11.228;2023-03-13T13:57:26;1.17;;;1.00;;
12719;SDS011;6424;48.520;11.228;2023-03-13T14:00:21;2.23;;;1.00;;
12719;SDS011;6424;48.520;11.228;2023-03-13T14:03:42;3.50;;;1.10;;
12719;SDS011;6424;48.520;11.228;2023-03-13T14:06:27;4.77;;;1.13;;
12719;SDS011;6424;48.520;11.228;2023-03-13T14:12:26;3.50;;;1.10;;
12719;SDS011;6424;48.520;11.228;2023-03-13T14:15:17;4.50;;;1.30;;
12719;SDS011;6424;48.520;11.228;2023-03-13T14:17:48;4.03;;;1.30;;
12719;SDS011;6424;48.520;11.228;2023-03-13T14:23:13;3.70;;;1.27;;
12719;SDS011;6424;48.520;11.228;2023-03-13T14:25:54;2.23;;;1.00;;
12719;SDS011;6424;48.520;11.228;2023-03-13T14:28:35;2.67;;;1.00;;
12719;SDS011;6424;48.520;11.228;2023-03-13T14:31:29;2.37;;;1.30;;
12719;SDS011;6424;48.520;11.228;2023-03-13T14:34:12;3.10;;;1.20;;
12719;SDS011;6424;48.520;11.228;2023-03-13T14:36:56;3.93;;;1.03;;
12719;SDS011;6424;48.520;11.228;2023-03-13T14:39:42;2.47;;;1.00;;
12719;SDS011;6424;48.520;11.228;2023-03-13T14:42:11;1.00;;;0.90;;
12719;SDS011;6424;48.520;11.228;2023-03-13T14:44:38;1.90;;;0.93;;
12719;SDS011;6424;48.520;11.228;2023-03-13T14:47:25;3.23;;;1.10;;
12719;SDS011;6424;48.520;11.228;2023-03-13T14:50:11;4.70;;;1.00;;
12719;SDS011;6424;48.520;11.228;2023-03-13T14:52:55;1.40;;;1.00;;
12719;SDS011;6424;48.520;11.228;2023-03-13T14:55:41;3.23;;;1.00;;
12719;SDS011;6424;48.520;11.228;2023-03-13T15:01:25;1.23;;;0.83;;
12719;SDS011;6424;48.520;11.228;2023-03-13T15:04:10;2.57;;;0.90;;
12719;SDS011;6424;48.520;11.228;2023-03-13T15:07:00;1.40;;;0.90;;
12719;SDS011;6424;48.520;11.228;2023-03-13T15:09:42;3.33;;;1.03;;
12719;SDS011;6424;48.520;11.228;2023-03-13T15:12:24;1.73;;;0.93;;
12719;SDS011;6424;48.520;11.228;2023-03-13T15:15:07;1.03;;;0.80;;
12719;SDS011;6424;48.520;11.228;2023-03-13T15:17:49;2.67;;;0.83;;
12719;SDS011;6424;48.520;11.228;2023-03-13T15:20:30;3.87;;;0.87;;
12719;SDS011;6424;48.520;11.228;2023-03-13T15:23:11;1.40;;;1.00;;
12719;SDS011;6424;48.520;11.228;2023-03-13T15:25:54;1.50;;;0.77;;
12719;SDS011;6424;48.520;11.228;2023-03-13T15:28:35;2.33;;;1.00;;
12719;SDS011;6424;48.520;11.228;2023-03-13T15:31:15;3.00;;;0.83;;
12719;SDS011;6424;48.520;11.228;2023-03-13T15:33:59;2.30;;;0.80;;
12719;SDS011;6424;48.520;11.228;2023-03-13T15:36:40;0.93;;;0.83;;
12719;SDS011;6424;48.520;11.228;2023-03-13T15:39:21;2.00;;;0.80;;
12719;SDS011;6424;48.520;11.228;2023-03-13T15:42:03;3.17;;;1.00;;
12719;SDS011;6424;48.520;11.228;2023-03-13T15:44:44;1.80;;;0.80;;
12719;SDS011;6424;48.520;11.228;2023-03-13T15:47:25;2.33;;;0.90;;
12719;SDS011;6424;48.520;11.228;2023-03-13T15:50:10;5.70;;;1.10;;
12719;SDS011;6424;48.520;11.228;2023-03-13T15:52:52;2.57;;;1.10;;
12719;SDS011;6424;48.520;11.228;2023-03-13T15:55:33;1.40;;;0.70;;
12719;SDS011;6424;48.520;11.228;2023-03-13T15:58:14;1.57;;;0.70;;
12719;SDS011;6424;48.520;11.228;2023-03-13T16:00:56;2.67;;;0.80;;
12719;SDS011;6424;48.520;11.228;2023-03-13T16:03:37;1.17;;;0.70;;
12719;SDS011;6424;48.520;11.228;2023-03-13T16:06:19;2.77;;;0.60;;
12719;SDS011;6424;48.520;11.228;2023-03-13T16:09:09;0.60;;;0.50;;
12719;SDS011;6424;48.520;11.228;2023-03-13T16:11:51;1.27;;;0.70;;
12719;SDS011;6424;48.520;11.228;2023-03-13T16:14:33;1.60;;;0.70;;
12719;SDS011;6424;48.520;11.228;2023-03-13T16:17:14;1.20;;;0.70;;
12719;SDS011;6424;48.520;11.228;2023-03-13T16:19:56;2.17;;;0.60;;
12719;SDS011;6424;48.520;11.228;2023-03-13T16:22:37;0.83;;;0.60;;
12719;SDS011;6424;48.520;11.228;2023-03-13T16:25:18;2.23;;;0.60;;
12719;SDS011;6424;48.520;11.228;2023-03-13T16:27:59;2.40;;;0.53;;
12719;SDS011;6424;48.520;11.228;2023-03-13T16:30:40;1.60;;;0.70;;
12719;SDS011;6424;48.520;11.228;2023-03-13T16:33:26;1.47;;;0.53;;
12719;SDS011;6424;48.520;11.228;2023-03-13T16:36:12;2.20;;;0.50;;
12719;SDS011;6424;48.520;11.228;2023-03-13T16:38:58;1.10;;;0.70;;
12719;SDS011;6424;48.520;11.228;2023-03-13T16:41:40;1.33;;;0.70;;
12719;SDS011;6424;48.520;11.228;2023-03-13T16:44:06;1.47;;;0.73;;
12719;SDS011;6424;48.520;11.228;2023-03-13T16:46:46;0.63;;;0.63;;
12719;SDS011;6424;48.520;11.228;2023-03-13T16:49:29;1.20;;;0.87;;
12719;SDS011;6424;48.520;11.228;2023-03-13T16:52:14;1.40;;;0.90;;
12719;SDS011;6424;48.520;11.228;2023-03-13T16:54:55;1.73;;;1.17;;
12719;SDS011;6424;48.520;11.228;2023-03-13T16:57:36;2.57;;;1.17;;
12719;SDS011;6424;48.520;11.228;2023-03-13T17:00:19;1.77;;;1.20;;
12719;SDS011;6424;48.520;11.228;2023-03-13T17:03:01;2.90;;;0.90;;
12719;SDS011;6424;48.520;11.228;2023-03-13T17:05:41;3.20;;;1.10;;
12719;SDS011;6424;48.520;11.228;2023-03-13T17:08:08;2.60;;;0.70;;
12719;SDS011;6424;48.520;11.228;2023-03-13T17:10:49;0.70;;;0.60;;
12719;SDS011;6424;48.520;11.228;2023-03-13T17:13:31;0.60;;;0.60;;
12719;SDS011;6424;48.520;11.228;2023-03-13T17:16:12;3.10;;;0.60;;
12719;SDS011;6424;48.520;11.228;2023-03-13T17:18:58;2.17;;;1.27;;
12719;SDS011;6424;48.520;11.228;2023-03-13T17:21:40;0.60;;;0.60;;
12719;SDS011;6424;48.520;11.228;2023-03-13T17:24:21;3.57;;;2.80;;
12719;SDS011;6424;48.520;11.228;2023-03-13T17:26:47;7.53;;;6.70;;
12719;SDS011;6424;48.520;11.228;2023-03-13T17:29:27;22.03;;;17.73;;
12719;SDS011;6424;48.520;11.228;2023-03-13T17:32:09;6.27;;;5.67;;
12719;SDS011;6424;48.520;11.228;2023-03-13T17:34:36;7.77;;;6.97;;
12719;SDS011;6424;48.520;11.228;2023-03-13T17:37:18;5.00;;;3.90;;
12719;SDS011;6424;48.520;11.228;2023-03-13T17:40:00;3.30;;;2.80;;
12719;SDS011;6424;48.520;11.228;2023-03-13T17:42:41;2.67;;;2.37;;
12719;SDS011;6424;48.520;11.228;2023-03-13T17:45:22;4.73;;;3.70;;
12719;SDS011;6424;48.520;11.228;2023-03-13T17:48:04;4.40;;;2.63;;
12719;SDS011;6424;48.520;11.228;2023-03-13T17:50:50;1.00;;;0.83;;
12719;SDS011;6424;48.520;11.228;2023-03-13T17:53:31;1.73;;;1.50;;
12719;SDS011;6424;48.520;11.228;2023-03-13T17:56:22;5.23;;;2.57;;
12719;SDS011;6424;48.520;11.228;2023-03-13T17:59:04;1.83;;;1.07;;